sensor_id;sensor_type;location;lat;lon;timestamp;pressure;altitude;pressure_sealevel;temperature;humidity
64095;BME280;50353;51.420;5.682;2023-05-16T00:02:05;101556.00;;;12.51;72.75
64095;BME280;50353;51.420;5.682;2023-05-16T00:04:30;101557.38;;;12.59;71.98
64095;BME280;50353;51.420;5.682;2023-05-16T00:06:57;101560.44;;;12.35;72.53
64095;BME280;50353;51.420;5.682;2023-05-16T00:09:22;101560.72;;;12.30;73.33
64095;BME280;50353;51.420;5.682;2023-05-16T00:11:47;101561.44;;;12.80;71.35
64095;BME280;50353;51.420;5.682;2023-05-16T00:14:14;101561.00;;;11.92;73.88
64095;BME280;50353;51.420;5.682;2023-05-16T00:16:39;101557.38;;;12.43;73.01
64095;BME280;50353;51.420;5.682;2023-05-16T00:19:06;101553.31;;;12.67;71.65
64095;BME280;50353;51.420;5.682;2023-05-16T00:21:31;101553.78;;;12.28;73.44
64095;BME280;50353;51.420;5.682;2023-05-16T00:23:57;101565.16;;;12.62;71.57
64095;BME280;50353;51.420;5.682;2023-05-16T00:26:22;101566.25;;;12.58;71.91
64095;BME280;50353;51.420;5.682;2023-05-16T00:28:47;101562.06;;;12.54;71.37
64095;BME280;50353;51.420;5.682;2023-05-16T00:31:13;101556.91;;;12.66;71.63
64095;BME280;50353;51.420;5.682;2023-05-16T00:33:38;101567.22;;;12.41;71.62
64095;BME280;50353;51.420;5.682;2023-05-16T00:36:03;101558.81;;;12.64;71.72
64095;BME280;50353;51.420;5.682;2023-05-16T00:38:29;101555.66;;;12.42;71.95
64095;BME280;50353;51.420;5.682;2023-05-16T00:40:54;101561.34;;;12.82;71.34
64095;BME280;50353;51.420;5.682;2023-05-16T00:43:19;101550.81;;;12.80;71.22
64095;BME280;50353;51.420;5.682;2023-05-16T00:45:45;101561.56;;;12.47;72.85
64095;BME280;50353;51.420;5.682;2023-05-16T00:48:11;101559.59;;;12.34;73.59
64095;BME280;50353;51.420;5.682;2023-05-16T00:50:38;101560.63;;;12.64;71.85
64095;BME280;50353;51.420;5.682;2023-05-16T00:53:03;101561.19;;;12.69;71.57
64095;BME280;50353;51.420;5.682;2023-05-16T00:55:29;101568.41;;;12.35;72.90
64095;BME280;50353;51.420;5.682;2023-05-16T00:57:56;101560.44;;;12.03;74.13
64095;BME280;50353;51.420;5.682;2023-05-16T01:00:22;101566.19;;;12.27;73.42
64095;BME280;50353;51.420;5.682;2023-05-16T01:02:48;101566.78;;;12.48;73.56
64095;BME280;50353;51.420;5.682;2023-05-16T01:05:16;101561.25;;;12.83;71.88
64095;BME280;50353;51.420;5.682;2023-05-16T01:07:41;101569.97;;;12.85;71.96
64095;BME280;50353;51.420;5.682;2023-05-16T01:10:07;101565.84;;;12.96;71.62
64095;BME280;50353;51.420;5.682;2023-05-16T01:12:53;101567.22;;;12.41;73.57
64095;BME280;50353;51.420;5.682;2023-05-16T01:15:29;101569.53;;;12.31;73.57
64095;BME280;50353;51.420;5.682;2023-05-16T01:18:05;101573.03;;;12.31;73.55
64095;BME280;50353;51.420;5.682;2023-05-16T01:21:00;101578.78;;;12.56;72.19
64095;BME280;50353;51.420;5.682;2023-05-16T01:23:52;101570.66;;;12.11;73.69
64095;BME280;50353;51.420;5.682;2023-05-16T01:26:24;101566.72;;;11.84;74.16
64095;BME280;50353;51.420;5.682;2023-05-16T01:28:51;101573.53;;;11.73;74.86
64095;BME280;50353;51.420;5.682;2023-05-16T01:31:16;101564.13;;;12.00;73.30
64095;BME280;50353;51.420;5.682;2023-05-16T01:33:42;101565.66;;;11.38;75.64
64095;BME280;50353;51.420;5.682;2023-05-16T01:41:54;101578.22;;;11.67;74.16
64095;BME280;50353;51.420;5.682;2023-05-16T01:46:47;101579.25;;;11.47;74.99
64095;BME280;50353;51.420;5.682;2023-05-16T01:49:24;101587.19;;;11.47;75.12
64095;BME280;50353;51.420;5.682;2023-05-16T01:51:59;101589.56;;;11.01;75.75
64095;BME280;50353;51.420;5.682;2023-05-16T01:54:30;101589.72;;;11.15;75.69
64095;BME280;50353;51.420;5.682;2023-05-16T01:56:55;101602.41;;;11.09;75.16
64095;BME280;50353;51.420;5.682;2023-05-16T01:59:23;101601.78;;;11.39;74.46
64095;BME280;50353;51.420;5.682;2023-05-16T02:01:48;101601.47;;;11.27;74.06
64095;BME280;50353;51.420;5.682;2023-05-16T02:04:17;101604.97;;;11.10;74.71
64095;BME280;50353;51.420;5.682;2023-05-16T02:06:42;101608.56;;;11.27;74.78
64095;BME280;50353;51.420;5.682;2023-05-16T02:09:07;101608.78;;;11.22;74.51
64095;BME280;50353;51.420;5.682;2023-05-16T02:11:33;101604.59;;;11.18;74.53
64095;BME280;50353;51.420;5.682;2023-05-16T02:13:58;101611.91;;;11.30;73.17
64095;BME280;50353;51.420;5.682;2023-05-16T02:16:24;101614.13;;;11.21;73.24
64095;BME280;50353;51.420;5.682;2023-05-16T02:18:49;101616.13;;;11.35;73.71
64095;BME280;50353;51.420;5.682;2023-05-16T02:21:14;101616.28;;;10.77;74.71
64095;BME280;50353;51.420;5.682;2023-05-16T02:23:40;101613.50;;;11.50;72.97
64095;BME280;50353;51.420;5.682;2023-05-16T02:26:05;101618.44;;;11.06;73.31
64095;BME280;50353;51.420;5.682;2023-05-16T02:28:31;101620.69;;;11.31;72.65
64095;BME280;50353;51.420;5.682;2023-05-16T02:31:00;101619.09;;;10.92;73.77
64095;BME280;50353;51.420;5.682;2023-05-16T02:33:26;101620.22;;;11.23;72.62
64095;BME280;50353;51.420;5.682;2023-05-16T02:35:52;101627.00;;;10.74;74.09
64095;BME280;50353;51.420;5.682;2023-05-16T02:38:18;101630.69;;;10.89;73.40
64095;BME280;50353;51.420;5.682;2023-05-16T02:40:48;101629.88;;;11.06;73.10
64095;BME280;50353;51.420;5.682;2023-05-16T02:43:13;101637.81;;;11.06;72.61
64095;BME280;50353;51.420;5.682;2023-05-16T02:45:38;101636.09;;;10.49;73.71
64095;BME280;50353;51.420;5.682;2023-05-16T02:48:04;101645.03;;;11.03;72.55
64095;BME280;50353;51.420;5.682;2023-05-16T02:50:29;101645.59;;;11.09;71.89
64095;BME280;50353;51.420;5.682;2023-05-16T02:52:55;101647.13;;;10.40;73.70
64095;BME280;50353;51.420;5.682;2023-05-16T02:55:21;101653.03;;;11.01;72.55
64095;BME280;50353;51.420;5.682;2023-05-16T02:57:46;101651.34;;;10.24;74.26
64095;BME280;50353;51.420;5.682;2023-05-16T03:00:12;101666.09;;;10.87;72.78
64095;BME280;50353;51.420;5.682;2023-05-16T03:02:38;101660.09;;;10.64;73.10
64095;BME280;50353;51.420;5.682;2023-05-16T03:05:03;101663.88;;;11.31;71.13
64095;BME280;50353;51.420;5.682;2023-05-16T03:07:30;101663.19;;;11.10;70.98
64095;BME280;50353;51.420;5.682;2023-05-16T03:09:55;101659.53;;;10.57;73.14
64095;BME280;50353;51.420;5.682;2023-05-16T03:12:20;101664.59;;;10.81;72.97
64095;BME280;50353;51.420;5.682;2023-05-16T03:14:46;101667.53;;;10.56;74.05
64095;BME280;50353;51.420;5.682;2023-05-16T03:17:11;101665.09;;;10.70;73.71
64095;BME280;50353;51.420;5.682;2023-05-16T03:19:36;101667.97;;;10.46;74.92
64095;BME280;50353;51.420;5.682;2023-05-16T03:22:01;101670.47;;;10.69;73.77
64095;BME280;50353;51.420;5.682;2023-05-16T03:24:28;101669.47;;;11.08;72.30
64095;BME280;50353;51.420;5.682;2023-05-16T03:26:53;101673.03;;;10.70;72.76
64095;BME280;50353;51.420;5.682;2023-05-16T03:29:18;101680.41;;;10.82;73.29
64095;BME280;50353;51.420;5.682;2023-05-16T03:31:43;101678.53;;;10.65;73.36
64095;BME280;50353;51.420;5.682;2023-05-16T03:34:09;101675.97;;;10.64;74.47
64095;BME280;50353;51.420;5.682;2023-05-16T03:36:34;101683.47;;;10.73;73.43
64095;BME280;50353;51.420;5.682;2023-05-16T03:39:00;101687.97;;;10.71;73.29
64095;BME280;50353;51.420;5.682;2023-05-16T03:41:25;101690.03;;;10.83;72.95
64095;BME280;50353;51.420;5.682;2023-05-16T03:43:50;101690.53;;;10.92;72.68
64095;BME280;50353;51.420;5.682;2023-05-16T03:46:15;101689.41;;;10.59;73.58
64095;BME280;50353;51.420;5.682;2023-05-16T03:48:41;101694.25;;;10.88;73.01
64095;BME280;50353;51.420;5.682;2023-05-16T03:51:06;101689.94;;;10.85;72.98
64095;BME280;50353;51.420;5.682;2023-05-16T03:53:31;101691.91;;;10.81;72.95
64095;BME280;50353;51.420;5.682;2023-05-16T03:55:57;101700.13;;;10.75;73.45
64095;BME280;50353;51.420;5.682;2023-05-16T03:58:23;101700.34;;;10.90;73.22
64095;BME280;50353;51.420;5.682;2023-05-16T04:00:48;101697.25;;;11.16;71.37
64095;BME280;50353;51.420;5.682;2023-05-16T04:03:13;101696.91;;;10.49;74.28
64095;BME280;50353;51.420;5.682;2023-05-16T04:05:39;101703.84;;;10.52;74.40
64095;BME280;50353;51.420;5.682;2023-05-16T04:08:04;101707.28;;;10.92;72.48
64095;BME280;50353;51.420;5.682;2023-05-16T04:10:29;101712.06;;;10.84;73.08
64095;BME280;50353;51.420;5.682;2023-05-16T04:12:55;101702.69;;;10.58;73.26
64095;BME280;50353;51.420;5.682;2023-05-16T04:15:20;101697.72;;;10.31;74.58
64095;BME280;50353;51.420;5.682;2023-05-16T04:17:45;101709.00;;;10.55;73.46
64095;BME280;50353;51.420;5.682;2023-05-16T04:20:11;101713.72;;;10.48;73.45
64095;BME280;50353;51.420;5.682;2023-05-16T04:22:36;101718.50;;;10.59;73.66
64095;BME280;50353;51.420;5.682;2023-05-16T04:25:01;101718.69;;;10.55;73.21
64095;BME280;50353;51.420;5.682;2023-05-16T04:27:26;101726.41;;;10.40;73.79
64095;BME280;50353;51.420;5.682;2023-05-16T04:29:53;101715.41;;;10.69;72.97
64095;BME280;50353;51.420;5.682;2023-05-16T04:32:18;101718.84;;;10.90;72.49
64095;BME280;50353;51.420;5.682;2023-05-16T04:34:44;101724.41;;;10.83;72.92
64095;BME280;50353;51.420;5.682;2023-05-16T04:37:10;101726.31;;;11.18;71.43
64095;BME280;50353;51.420;5.682;2023-05-16T04:39:36;101731.97;;;11.10;71.76
64095;BME280;50353;51.420;5.682;2023-05-16T04:42:02;101735.28;;;10.96;71.52
64095;BME280;50353;51.420;5.682;2023-05-16T04:44:28;101739.09;;;10.72;72.54
64095;BME280;50353;51.420;5.682;2023-05-16T04:46:53;101736.50;;;10.70;72.59
64095;BME280;50353;51.420;5.682;2023-05-16T04:49:19;101737.84;;;10.98;71.93
64095;BME280;50353;51.420;5.682;2023-05-16T04:51:46;101750.56;;;11.09;71.13
64095;BME280;50353;51.420;5.682;2023-05-16T04:54:12;101743.16;;;10.79;72.22
64095;BME280;50353;51.420;5.682;2023-05-16T04:56:37;101746.63;;;10.98;71.58
64095;BME280;50353;51.420;5.682;2023-05-16T04:59:02;101748.06;;;11.42;70.42
64095;BME280;50353;51.420;5.682;2023-05-16T05:01:28;101746.31;;;11.60;70.16
64095;BME280;50353;51.420;5.682;2023-05-16T05:03:53;101760.25;;;10.91;71.73
64095;BME280;50353;51.420;5.682;2023-05-16T05:06:19;101762.06;;;11.27;71.05
64095;BME280;50353;51.420;5.682;2023-05-16T05:08:44;101759.44;;;11.44;70.27
64095;BME280;50353;51.420;5.682;2023-05-16T05:11:09;101762.94;;;11.45;69.89
64095;BME280;50353;51.420;5.682;2023-05-16T05:13:35;101769.81;;;11.49;70.69
64095;BME280;50353;51.420;5.682;2023-05-16T05:16:00;101762.59;;;11.53;70.33
64095;BME280;50353;51.420;5.682;2023-05-16T05:18:28;101759.41;;;11.63;69.39
64095;BME280;50353;51.420;5.682;2023-05-16T05:20:54;101762.66;;;10.76;71.63
64095;BME280;50353;51.420;5.682;2023-05-16T05:23:19;101755.44;;;10.99;71.40
64095;BME280;50353;51.420;5.682;2023-05-16T05:25:44;101754.44;;;11.38;70.71
64095;BME280;50353;51.420;5.682;2023-05-16T05:28:10;101760.56;;;11.93;69.11
64095;BME280;50353;51.420;5.682;2023-05-16T05:30:35;101760.13;;;12.02;68.48
64095;BME280;50353;51.420;5.682;2023-05-16T05:33:01;101759.56;;;11.24;70.98
64095;BME280;50353;51.420;5.682;2023-05-16T05:35:26;101766.59;;;12.14;69.16
64095;BME280;50353;51.420;5.682;2023-05-16T05:37:51;101763.03;;;11.97;68.44
64095;BME280;50353;51.420;5.682;2023-05-16T05:40:16;101772.38;;;12.05;68.57
64095;BME280;50353;51.420;5.682;2023-05-16T05:42:42;101770.34;;;12.43;67.57
64095;BME280;50353;51.420;5.682;2023-05-16T05:45:07;101764.19;;;12.76;65.70
64095;BME280;50353;51.420;5.682;2023-05-16T05:47:33;101773.16;;;12.90;64.66
64095;BME280;50353;51.420;5.682;2023-05-16T05:49:58;101783.25;;;12.67;66.33
64095;BME280;50353;51.420;5.682;2023-05-16T05:52:23;101777.81;;;13.02;64.93
64095;BME280;50353;51.420;5.682;2023-05-16T05:54:49;101775.81;;;12.90;64.04
64095;BME280;50353;51.420;5.682;2023-05-16T05:57:14;101780.41;;;13.04;64.15
64095;BME280;50353;51.420;5.682;2023-05-16T05:59:40;101778.00;;;13.31;63.57
64095;BME280;50353;51.420;5.682;2023-05-16T06:02:05;101780.88;;;13.26;63.12
64095;BME280;50353;51.420;5.682;2023-05-16T06:04:32;101785.09;;;13.46;62.81
64095;BME280;50353;51.420;5.682;2023-05-16T06:06:57;101782.66;;;13.74;62.20
64095;BME280;50353;51.420;5.682;2023-05-16T06:09:22;101793.25;;;13.90;61.86
64095;BME280;50353;51.420;5.682;2023-05-16T06:11:48;101784.69;;;14.29;59.95
64095;BME280;50353;51.420;5.682;2023-05-16T06:14:14;101788.97;;;14.32;60.18
64095;BME280;50353;51.420;5.682;2023-05-16T06:16:40;101792.91;;;14.25;60.14
64095;BME280;50353;51.420;5.682;2023-05-16T06:19:05;101792.50;;;14.02;59.44
64095;BME280;50353;51.420;5.682;2023-05-16T06:21:31;101798.47;;;14.06;59.04
64095;BME280;50353;51.420;5.682;2023-05-16T06:23:57;101798.09;;;13.67;59.31
64095;BME280;50353;51.420;5.682;2023-05-16T06:26:22;101802.22;;;14.17;60.47
64095;BME280;50353;51.420;5.682;2023-05-16T06:28:48;101806.72;;;14.46;57.08
64095;BME280;50353;51.420;5.682;2023-05-16T06:31:13;101810.34;;;14.00;58.49
64095;BME280;50353;51.420;5.682;2023-05-16T06:33:39;101805.88;;;13.70;60.49
64095;BME280;50353;51.420;5.682;2023-05-16T06:36:05;101810.59;;;14.11;58.66
64095;BME280;50353;51.420;5.682;2023-05-16T06:38:30;101814.78;;;14.30;57.44
64095;BME280;50353;51.420;5.682;2023-05-16T06:40:55;101811.50;;;14.55;57.85
64095;BME280;50353;51.420;5.682;2023-05-16T06:43:21;101807.16;;;14.68;56.09
64095;BME280;50353;51.420;5.682;2023-05-16T06:45:46;101806.97;;;14.72;55.61
64095;BME280;50353;51.420;5.682;2023-05-16T06:48:12;101806.25;;;15.11;54.26
64095;BME280;50353;51.420;5.682;2023-05-16T06:50:39;101809.09;;;14.36;55.17
64095;BME280;50353;51.420;5.682;2023-05-16T06:53:04;101807.88;;;14.42;56.36
64095;BME280;50353;51.420;5.682;2023-05-16T06:55:31;101814.19;;;14.84;54.14
64095;BME280;50353;51.420;5.682;2023-05-16T06:57:57;101810.03;;;15.21;53.49
64095;BME280;50353;51.420;5.682;2023-05-16T07:00:22;101814.19;;;14.84;54.74
64095;BME280;50353;51.420;5.682;2023-05-16T07:02:47;101814.22;;;15.26;53.04
64095;BME280;50353;51.420;5.682;2023-05-16T07:05:12;101814.03;;;15.14;53.90
64095;BME280;50353;51.420;5.682;2023-05-16T07:07:38;101820.66;;;15.36;53.97
64095;BME280;50353;51.420;5.682;2023-05-16T07:10:03;101823.16;;;15.79;51.63
64095;BME280;50353;51.420;5.682;2023-05-16T07:12:28;101823.03;;;15.68;51.15
64095;BME280;50353;51.420;5.682;2023-05-16T07:14:54;101824.31;;;15.20;50.88
64095;BME280;50353;51.420;5.682;2023-05-16T07:17:19;101826.91;;;15.49;50.87
64095;BME280;50353;51.420;5.682;2023-05-16T07:19:44;101828.28;;;16.48;50.40
64095;BME280;50353;51.420;5.682;2023-05-16T07:22:10;101820.25;;;15.97;51.55
64095;BME280;50353;51.420;5.682;2023-05-16T07:24:36;101824.91;;;16.46;51.41
64095;BME280;50353;51.420;5.682;2023-05-16T07:27:01;101833.59;;;15.69;51.91
64095;BME280;50353;51.420;5.682;2023-05-16T07:29:26;101837.66;;;15.75;52.54
64095;BME280;50353;51.420;5.682;2023-05-16T07:31:52;101839.94;;;16.47;50.73
64095;BME280;50353;51.420;5.682;2023-05-16T07:34:17;101841.00;;;16.70;48.86
64095;BME280;50353;51.420;5.682;2023-05-16T07:36:42;101830.44;;;16.17;50.34
64095;BME280;50353;51.420;5.682;2023-05-16T07:39:08;101835.28;;;15.98;51.15
64095;BME280;50353;51.420;5.682;2023-05-16T07:41:33;101842.44;;;15.70;51.75
64095;BME280;50353;51.420;5.682;2023-05-16T07:43:58;101848.03;;;14.67;53.08
64095;BME280;50353;51.420;5.682;2023-05-16T07:46:23;101841.34;;;14.15;54.59
64095;BME280;50353;51.420;5.682;2023-05-16T07:48:49;101833.16;;;15.90;51.37
64095;BME280;50353;51.420;5.682;2023-05-16T07:51:15;101843.78;;;16.43;49.36
64095;BME280;50353;51.420;5.682;2023-05-16T07:53:40;101833.19;;;17.43;48.58
64095;BME280;50353;51.420;5.682;2023-05-16T07:56:06;101841.66;;;16.22;51.56
64095;BME280;50353;51.420;5.682;2023-05-16T07:58:32;101836.44;;;15.66;50.05
64095;BME280;50353;51.420;5.682;2023-05-16T08:00:57;101831.13;;;17.22;48.29
64095;BME280;50353;51.420;5.682;2023-05-16T08:03:23;101836.41;;;16.85;47.43
64095;BME280;50353;51.420;5.682;2023-05-16T08:05:48;101839.94;;;16.99;48.21
64095;BME280;50353;51.420;5.682;2023-05-16T08:08:13;101824.88;;;16.98;47.40
64095;BME280;50353;51.420;5.682;2023-05-16T08:10:39;101842.81;;;17.09;45.87
64095;BME280;50353;51.420;5.682;2023-05-16T08:13:04;101835.63;;;17.09;45.30
64095;BME280;50353;51.420;5.682;2023-05-16T08:15:30;101834.66;;;17.47;46.96
64095;BME280;50353;51.420;5.682;2023-05-16T08:17:57;101845.13;;;17.50;45.14
64095;BME280;50353;51.420;5.682;2023-05-16T08:20:22;101852.66;;;16.56;46.39
64095;BME280;50353;51.420;5.682;2023-05-16T08:22:48;101848.47;;;15.86;46.00
64095;BME280;50353;51.420;5.682;2023-05-16T08:25:13;101850.31;;;16.90;43.92
64095;BME280;50353;51.420;5.682;2023-05-16T08:27:38;101850.84;;;16.83;45.19
64095;BME280;50353;51.420;5.682;2023-05-16T08:30:06;101839.78;;;17.26;42.76
64095;BME280;50353;51.420;5.682;2023-05-16T08:32:31;101847.44;;;17.79;42.74
64095;BME280;50353;51.420;5.682;2023-05-16T08:34:56;101843.78;;;17.93;41.52
64095;BME280;50353;51.420;5.682;2023-05-16T08:37:22;101840.34;;;18.15;44.45
64095;BME280;50353;51.420;5.682;2023-05-16T08:39:47;101833.38;;;18.13;41.92
64095;BME280;50353;51.420;5.682;2023-05-16T08:42:12;101841.25;;;17.54;44.89
64095;BME280;50353;51.420;5.682;2023-05-16T08:44:37;101844.66;;;18.63;44.14
64095;BME280;50353;51.420;5.682;2023-05-16T08:47:11;101836.47;;;17.71;45.35
64095;BME280;50353;51.420;5.682;2023-05-16T08:49:39;101839.03;;;17.97;43.25
64095;BME280;50353;51.420;5.682;2023-05-16T08:52:07;101835.91;;;18.72;40.90
64095;BME280;50353;51.420;5.682;2023-05-16T08:54:35;101839.13;;;18.89;40.10
64095;BME280;50353;51.420;5.682;2023-05-16T08:57:01;101840.41;;;19.72;40.88
64095;BME280;50353;51.420;5.682;2023-05-16T08:59:27;101832.72;;;19.35;41.21
64095;BME280;50353;51.420;5.682;2023-05-16T09:01:53;101836.53;;;19.21;42.50
64095;BME280;50353;51.420;5.682;2023-05-16T09:04:19;101834.97;;;17.91;42.23
64095;BME280;50353;51.420;5.682;2023-05-16T09:06:44;101839.84;;;18.21;41.34
64095;BME280;50353;51.420;5.682;2023-05-16T09:09:10;101833.97;;;18.05;45.35
64095;BME280;50353;51.420;5.682;2023-05-16T09:11:37;101838.75;;;17.88;43.43
64095;BME280;50353;51.420;5.682;2023-05-16T09:14:02;101835.56;;;18.07;43.25
64095;BME280;50353;51.420;5.682;2023-05-16T09:16:29;101839.06;;;17.72;43.37
64095;BME280;50353;51.420;5.682;2023-05-16T09:18:57;101831.59;;;18.24;42.51
64095;BME280;50353;51.420;5.682;2023-05-16T09:21:29;101824.69;;;17.73;41.99
64095;BME280;50353;51.420;5.682;2023-05-16T09:23:56;101840.09;;;18.18;43.02
64095;BME280;50353;51.420;5.682;2023-05-16T09:26:22;101836.28;;;18.79;42.53
64095;BME280;50353;51.420;5.682;2023-05-16T09:28:47;101832.66;;;17.86;45.20
64095;BME280;50353;51.420;5.682;2023-05-16T09:33:45;101837.59;;;18.39;43.43
64095;BME280;50353;51.420;5.682;2023-05-16T09:36:10;101839.41;;;19.41;41.49
64095;BME280;50353;51.420;5.682;2023-05-16T09:38:36;101831.22;;;19.42;40.69
64095;BME280;50353;51.420;5.682;2023-05-16T09:41:01;101835.41;;;18.79;43.37
64095;BME280;50353;51.420;5.682;2023-05-16T09:43:27;101833.91;;;19.42;39.73
64095;BME280;50353;51.420;5.682;2023-05-16T09:45:52;101838.84;;;20.02;40.56
64095;BME280;50353;51.420;5.682;2023-05-16T09:48:20;101841.28;;;19.06;41.20
64095;BME280;50353;51.420;5.682;2023-05-16T09:50:50;101830.31;;;18.75;40.89
64095;BME280;50353;51.420;5.682;2023-05-16T09:53:17;101834.34;;;20.76;39.17
64095;BME280;50353;51.420;5.682;2023-05-16T09:55:58;101827.38;;;19.68;41.20
64095;BME280;50353;51.420;5.682;2023-05-16T09:58:27;101829.94;;;17.27;44.05
64095;BME280;50353;51.420;5.682;2023-05-16T10:00:54;101825.75;;;18.31;43.89
64095;BME280;50353;51.420;5.682;2023-05-16T10:03:22;101836.78;;;18.96;41.85
64095;BME280;50353;51.420;5.682;2023-05-16T10:05:47;101833.25;;;19.62;40.53
64095;BME280;50353;51.420;5.682;2023-05-16T10:08:14;101839.91;;;18.55;39.77
64095;BME280;50353;51.420;5.682;2023-05-16T10:10:40;101827.63;;;19.21;38.89
64095;BME280;50353;51.420;5.682;2023-05-16T10:13:07;101836.63;;;18.52;40.87
64095;BME280;50353;51.420;5.682;2023-05-16T10:15:35;101832.63;;;19.03;40.78
64095;BME280;50353;51.420;5.682;2023-05-16T10:18:01;101840.69;;;20.02;40.58
64095;BME280;50353;51.420;5.682;2023-05-16T10:20:27;101829.94;;;20.23;42.47
64095;BME280;50353;51.420;5.682;2023-05-16T10:22:54;101828.13;;;20.54;41.31
64095;BME280;50353;51.420;5.682;2023-05-16T10:25:33;101834.56;;;19.35;42.93
64095;BME280;50353;51.420;5.682;2023-05-16T10:28:01;101832.88;;;18.77;43.48
64095;BME280;50353;51.420;5.682;2023-05-16T10:30:27;101836.44;;;18.08;44.68
64095;BME280;50353;51.420;5.682;2023-05-16T10:32:52;101840.94;;;17.83;45.04
64095;BME280;50353;51.420;5.682;2023-05-16T10:35:19;101842.66;;;17.23;45.12
64095;BME280;50353;51.420;5.682;2023-05-16T10:37:44;101838.31;;;17.70;44.95
64095;BME280;50353;51.420;5.682;2023-05-16T10:40:11;101835.75;;;17.69;44.18
64095;BME280;50353;51.420;5.682;2023-05-16T10:42:36;101838.88;;;18.22;44.52
64095;BME280;50353;51.420;5.682;2023-05-16T10:45:18;101838.59;;;19.62;44.11
64095;BME280;50353;51.420;5.682;2023-05-16T10:47:54;101831.78;;;17.86;42.58
64095;BME280;50353;51.420;5.682;2023-05-16T10:50:38;101825.75;;;20.09;42.58
64095;BME280;50353;51.420;5.682;2023-05-16T10:53:20;101820.34;;;19.12;39.96
64095;BME280;50353;51.420;5.682;2023-05-16T10:58:24;101810.00;;;19.51;45.14
64095;BME280;50353;51.420;5.682;2023-05-16T11:09:06;101824.38;;;17.78;40.38
64095;BME280;50353;51.420;5.682;2023-05-16T11:19:46;101814.97;;;17.97;39.60
64095;BME280;50353;51.420;5.682;2023-05-16T11:25:06;101834.25;;;17.89;41.11
64095;BME280;50353;51.420;5.682;2023-05-16T11:27:34;101833.63;;;16.87;41.99
64095;BME280;50353;51.420;5.682;2023-05-16T11:32:35;101830.41;;;18.51;39.77
64095;BME280;50353;51.420;5.682;2023-05-16T11:35:01;101825.31;;;18.71;38.23
64095;BME280;50353;51.420;5.682;2023-05-16T11:37:27;101826.84;;;19.74;38.67
64095;BME280;50353;51.420;5.682;2023-05-16T11:39:58;101817.94;;;20.79;37.78
64095;BME280;50353;51.420;5.682;2023-05-16T11:42:23;101821.34;;;19.75;36.21
64095;BME280;50353;51.420;5.682;2023-05-16T11:44:49;101819.09;;;20.55;37.05
64095;BME280;50353;51.420;5.682;2023-05-16T11:47:14;101822.75;;;20.75;35.81
64095;BME280;50353;51.420;5.682;2023-05-16T11:49:39;101824.59;;;20.54;35.34
64095;BME280;50353;51.420;5.682;2023-05-16T11:52:06;101820.34;;;19.00;37.46
64095;BME280;50353;51.420;5.682;2023-05-16T11:54:33;101831.81;;;19.02;37.70
64095;BME280;50353;51.420;5.682;2023-05-16T11:56:58;101837.25;;;19.67;36.62
64095;BME280;50353;51.420;5.682;2023-05-16T11:59:24;101841.13;;;18.85;38.42
64095;BME280;50353;51.420;5.682;2023-05-16T12:01:50;101841.75;;;18.55;39.79
64095;BME280;50353;51.420;5.682;2023-05-16T12:04:16;101840.50;;;19.38;39.41
64095;BME280;50353;51.420;5.682;2023-05-16T12:06:42;101830.31;;;19.09;39.66
64095;BME280;50353;51.420;5.682;2023-05-16T12:09:13;101843.16;;;18.36;39.75
64095;BME280;50353;51.420;5.682;2023-05-16T12:11:40;101839.34;;;19.52;39.46
64095;BME280;50353;51.420;5.682;2023-05-16T12:14:12;101843.50;;;18.20;40.45
64095;BME280;50353;51.420;5.682;2023-05-16T12:16:38;101841.31;;;19.50;40.92
64095;BME280;50353;51.420;5.682;2023-05-16T12:19:06;101837.00;;;19.15;41.52
64095;BME280;50353;51.420;5.682;2023-05-16T12:21:32;101833.91;;;19.42;38.27
64095;BME280;50353;51.420;5.682;2023-05-16T12:23:58;101843.63;;;18.88;40.93
64095;BME280;50353;51.420;5.682;2023-05-16T12:26:25;101835.78;;;19.19;39.97
64095;BME280;50353;51.420;5.682;2023-05-16T12:28:56;101828.56;;;19.75;39.08
64095;BME280;50353;51.420;5.682;2023-05-16T12:31:25;101841.16;;;19.08;40.79
64095;BME280;50353;51.420;5.682;2023-05-16T12:33:53;101847.59;;;18.49;41.32
64095;BME280;50353;51.420;5.682;2023-05-16T12:36:20;101845.50;;;18.30;39.73
64095;BME280;50353;51.420;5.682;2023-05-16T12:38:46;101839.25;;;18.29;40.90
64095;BME280;50353;51.420;5.682;2023-05-16T12:41:18;101845.69;;;17.91;41.51
64095;BME280;50353;51.420;5.682;2023-05-16T12:43:44;101851.13;;;18.49;43.11
64095;BME280;50353;51.420;5.682;2023-05-16T12:46:09;101842.06;;;17.92;41.09
64095;BME280;50353;51.420;5.682;2023-05-16T12:48:38;101846.38;;;17.82;40.91
64095;BME280;50353;51.420;5.682;2023-05-16T12:51:18;101855.09;;;17.97;42.18
64095;BME280;50353;51.420;5.682;2023-05-16T12:53:45;101854.28;;;18.54;39.22
64095;BME280;50353;51.420;5.682;2023-05-16T12:56:11;101859.19;;;17.89;40.86
64095;BME280;50353;51.420;5.682;2023-05-16T12:58:38;101862.44;;;18.75;39.47
64095;BME280;50353;51.420;5.682;2023-05-16T13:01:04;101865.69;;;18.34;39.71
64095;BME280;50353;51.420;5.682;2023-05-16T13:03:30;101862.66;;;18.50;39.81
64095;BME280;50353;51.420;5.682;2023-05-16T13:05:57;101871.06;;;18.34;40.08
64095;BME280;50353;51.420;5.682;2023-05-16T13:08:22;101859.28;;;17.88;41.65
64095;BME280;50353;51.420;5.682;2023-05-16T13:10:47;101868.91;;;17.66;42.78
64095;BME280;50353;51.420;5.682;2023-05-16T13:13:13;101876.72;;;17.32;43.28
64095;BME280;50353;51.420;5.682;2023-05-16T13:15:39;101867.22;;;17.28;43.23
64095;BME280;50353;51.420;5.682;2023-05-16T13:18:06;101869.75;;;17.67;41.28
64095;BME280;50353;51.420;5.682;2023-05-16T13:20:31;101873.50;;;17.40;42.02
64095;BME280;50353;51.420;5.682;2023-05-16T13:22:57;101877.72;;;17.55;42.73